Keauhou, HI

9:52 PM HST on July 27, 2014 (GMT -1000)
Kona Palisades (KHIKAILU24) Elev 1007 ft | 19.72 °N, 155.99 °W | Change Station

Current weather conditions updated 8 minutes ago

Clear
Clear
75.6 °F
Feels Like 76 °F
N
3.0
Wind Variable Wind from East
Gusts 4.0 mph

Tomorrow is forecast to be nearly the same temperature as today.

Today
High -- | Low -- °F
--% Chance of Precip.
Yesterday
High -- | Low -- °F
Precip. -- in
5:58 AM 7:02 PM
New Moon, 2% visible
Pressure 29.98 in
Visibility 10.0 miles
Clouds Clear
Heat Index 76 °F
Dew Point 71 °F
Humidity 85%
Rainfall 0.00 in
Snow Depth Not available.
UV 0 out of 12
Pollen Not available.
Air Quality Not available.
Flu Activity Not available.
METAR PHKO 280653Z 19004KT 10SM CLR 28/23 A2998 RMK AO2 SLP152 T02780228

More Conditions Fewer Conditions

Pressure 29.98 in
Visibility 10.0 miles
Clouds Clear
Heat Index 76 °F
Dew Point 71 °F
Humidity 85%
Rainfall 0.00 in
Snow Depth Not available.
UV 0 out of 12
Pollen Not available.
Air Quality Not available.
Flu Activity Not available.
METAR PHKO 280653Z 19004KT 10SM CLR 28/23 A2998 RMK AO2 SLP152 T02780228

More Conditions Fewer Conditions

10-Day Weather Forecast

Almanac

Astronomy

Jul. 27, 2014 Rise Set
Actual Time 5:58 AM HST 7:02 PM HST
Civil Twilight 5:34 AM HST 7:26 PM HST
Nautical Twilight 5:06 AM HST 7:54 PM HST
Astronomical Twilight 4:38 AM HST 8:22 PM HST
Moon 6:40 AM HST (7/27) 7:36 PM HST (7/27)
Length of Visible Light 13h 51m
Length of Day
13h 04m
Tomorrow will be 0m 45s shorter.
New Moon, 2% of the Moon is Illuminated
Jul 28
New Moon
Aug 3
First Quarter
Aug 10
Full
Aug 17
Last Quarter
Aug 25
New

Yesterday's Extremes

State Highs State Lows

Community

WunderPhotos

Upload Photos

1,738,292 photos uploaded!

Nearby

Snow Depth

Station Depth Elevation
No new snow has been reported.

Earthquake Activity

City Distance Mag. Time & Date
No recent earthquake activity has been reported nearby.
Minimum magnitude displayed is 2.5.

Coastal Water Temperatures

Place Temperature
No Stations Reporting

Nearby Weather Stations

Station Location Temp. Heat Index Dew Point Humidity Wind Precip. Elev Updated Type
Kona Palisades, Kailua-Kona, HI 75.6 °F 76 °F 71 °F 85% East  at  3.0 mph 0.00 in / hr 1007 ft 9:43 PM HST Normal
Waikoloa Village, Waikoloa, HI 76.0 °F 78 °F 66 °F 70% East  at  6.0 mph 0.00 in / hr 920 ft 9:30 PM HST Normal
Halemalu, Captain Cook, HI 73.2 °F - 73 °F 99% SW  at  0.0 mph 0.00 in / hr 1700 ft 9:52 PM HST Rapid Fire

Show More Stations Show Fewer Stations